createdAt,value
2024-03-12T00:00:24.760Z,101949.20
2024-03-12T00:02:52.438Z,101946.66
2024-03-12T00:05:20.464Z,101944.98
2024-03-12T00:07:50.542Z,101936.60
2024-03-12T00:10:20.653Z,101934.54
2024-03-12T00:12:49.565Z,101930.09
2024-03-12T00:15:26.975Z,101934.88
2024-03-12T00:17:55.543Z,101928.39
2024-03-12T00:20:31.640Z,101914.50
2024-03-12T00:23:00.497Z,101916.02
2024-03-12T00:25:29.792Z,101918.34
2024-03-12T00:27:57.689Z,101914.99
2024-03-12T00:30:28.840Z,101906.45
2024-03-12T00:32:58.435Z,101897.40
2024-03-12T00:35:26.796Z,101896.24
2024-03-12T00:37:54.235Z,101887.95
2024-03-12T00:40:23.593Z,101886.33
2024-03-12T00:42:54.034Z,101882.00
2024-03-12T00:45:26.861Z,101878.56
2024-03-12T00:47:55.264Z,101878.68
2024-03-12T00:50:24.436Z,101876.56
2024-03-12T00:52:54.855Z,101870.91
2024-03-12T00:55:24.974Z,101869.01
2024-03-12T00:57:54.185Z,101867.23
2024-03-12T01:00:26.895Z,101869.09
2024-03-12T01:02:55.715Z,101864.98
2024-03-12T01:05:27.929Z,101866.86
2024-03-12T01:07:56.041Z,101869.73
2024-03-12T01:10:23.575Z,101876.25
2024-03-12T01:12:52.266Z,101881.14
2024-03-12T01:15:20.137Z,101876.10
2024-03-12T01:17:49.303Z,101871.48
2024-03-12T01:20:22.044Z,101871.48
2024-03-12T01:22:51.801Z,101875.22
2024-03-12T01:25:22.519Z,101873.66
2024-03-12T01:27:56.745Z,101875.02
2024-03-12T01:30:28.267Z,101864.39
2024-03-12T01:32:59.630Z,101872.27
2024-03-12T01:35:27.272Z,101865.70
2024-03-12T01:37:54.806Z,101864.16
2024-03-12T01:40:32.056Z,101861.83
2024-03-12T01:43:05.329Z,101863.08
2024-03-12T01:45:34.697Z,101850.98
2024-03-12T01:48:12.537Z,101848.70
2024-03-12T01:50:41.121Z,101843.95
2024-03-12T01:53:09.825Z,101842.52
2024-03-12T01:55:39.734Z,101840.11
2024-03-12T01:58:07.953Z,101844.16
2024-03-12T02:00:35.806Z,101845.75
2024-03-12T02:03:03.420Z,101846.30
2024-03-12T02:05:31.001Z,101850.15
2024-03-12T02:07:58.497Z,101850.80
2024-03-12T02:10:29.107Z,101847.88
2024-03-12T02:12:58.089Z,101843.16
2024-03-12T02:15:25.821Z,101836.53
2024-03-12T02:17:53.838Z,101832.20
2024-03-12T02:20:23.098Z,101830.60
2024-03-12T02:22:55.722Z,101828.86
2024-03-12T02:25:24.175Z,101830.42
2024-03-12T02:27:52.694Z,101831.48
2024-03-12T02:30:20.636Z,101826.27
2024-03-12T02:32:49.068Z,101821.27
2024-03-12T02:35:17.806Z,101818.74
2024-03-12T02:37:46.009Z,101816.36
2024-03-12T02:40:15.108Z,101819.48
2024-03-12T02:42:43.966Z,101820.30
2024-03-12T02:45:22.374Z,101824.16
2024-03-12T02:47:50.600Z,101827.58
2024-03-12T02:50:19.694Z,101828.25
2024-03-12T02:52:47.434Z,101824.10
2024-03-12T02:55:15.586Z,101825.94
2024-03-12T02:57:43.499Z,101819.75
2024-03-12T03:00:16.068Z,101817.20
2024-03-12T03:02:45.178Z,101818.90
2024-03-12T03:05:14.562Z,101820.81
2024-03-12T03:07:42.491Z,101814.52
2024-03-12T03:10:11.916Z,101815.59
2024-03-12T03:12:40.701Z,101815.34
2024-03-12T03:15:13.535Z,101816.34
2024-03-12T03:17:47.238Z,101820.55
2024-03-12T03:20:16.639Z,101824.59
2024-03-12T03:22:44.592Z,101826.31
2024-03-12T03:25:13.507Z,101827.48
2024-03-12T03:27:41.439Z,101826.09
2024-03-12T03:30:11.239Z,101827.29
2024-03-12T03:32:38.975Z,101823.82
2024-03-12T03:35:07.330Z,101829.02
2024-03-12T03:37:38.237Z,101827.30
2024-03-12T03:40:11.476Z,101829.80
2024-03-12T03:42:39.684Z,101834.85
2024-03-12T03:45:07.421Z,101837.63
2024-03-12T03:47:36.156Z,101834.77
2024-03-12T03:50:04.571Z,101838.31
2024-03-12T03:52:32.082Z,101837.19
2024-03-12T03:54:59.613Z,101833.25
2024-03-12T03:57:27.321Z,101829.70
2024-03-12T03:59:54.959Z,101832.20
2024-03-12T04:02:22.692Z,101834.91
2024-03-12T04:04:50.764Z,101840.71
2024-03-12T04:07:20.960Z,101841.77
2024-03-12T04:09:48.735Z,101843.70
2024-03-12T04:12:16.629Z,101844.67
2024-03-12T04:14:44.107Z,101844.13
2024-03-12T04:17:11.792Z,101841.08
2024-03-12T04:19:39.241Z,101838.85
2024-03-12T04:22:07.177Z,101833.23
2024-03-12T04:24:35.113Z,101828.50
2024-03-12T04:27:02.806Z,101823.63
2024-03-12T04:29:30.229Z,101819.90
2024-03-12T04:31:57.745Z,101812.81
2024-03-12T04:34:25.279Z,101808.52
2024-03-12T04:36:53.056Z,101805.00
2024-03-12T04:39:33.117Z,101800.02
2024-03-12T04:42:03.552Z,101796.55
2024-03-12T04:44:31.125Z,101793.61
2024-03-12T04:46:58.801Z,101790.45
2024-03-12T04:49:27.050Z,101781.50
2024-03-12T04:51:54.795Z,101759.64
2024-03-12T04:54:22.509Z,101752.52
2024-03-12T04:56:52.855Z,101739.98
2024-03-12T04:59:20.357Z,101738.98
2024-03-12T05:01:50.484Z,101734.63
2024-03-12T05:04:22.376Z,101731.84
2024-03-12T05:06:51.541Z,101731.54
2024-03-12T05:09:19.686Z,101722.23
2024-03-12T05:11:47.348Z,101717.61
2024-03-12T05:14:16.865Z,101707.34
2024-03-12T05:16:44.401Z,101690.83
2024-03-12T05:19:12.943Z,101674.18
2024-03-12T05:21:40.733Z,101663.28
2024-03-12T05:24:08.359Z,101644.48
2024-03-12T05:26:45.848Z,101644.62
2024-03-12T05:29:13.630Z,101646.23
2024-03-12T05:31:41.721Z,101651.42
2024-03-12T05:34:17.695Z,101664.08
2024-03-12T05:36:56.634Z,101679.09
2024-03-12T05:39:59.739Z,101700.33
2024-03-12T05:42:46.414Z,101727.94
2024-03-12T05:45:32.725Z,101746.77
2024-03-12T05:48:11.034Z,101743.40
2024-03-12T05:50:42.381Z,101740.09
2024-03-12T05:53:10.165Z,101739.95
2024-03-12T05:55:37.663Z,101740.59
2024-03-12T05:58:06.201Z,101751.88
2024-03-12T06:00:33.963Z,101750.05
2024-03-12T06:03:01.633Z,101746.73
2024-03-12T06:05:29.231Z,101744.71
2024-03-12T06:07:56.772Z,101741.51
2024-03-12T06:10:24.394Z,101738.83
2024-03-12T06:12:52.254Z,101740.59
2024-03-12T06:15:20.612Z,101736.49
2024-03-12T06:17:48.237Z,101741.64
2024-03-12T06:20:17.060Z,101742.40
2024-03-12T06:22:45.052Z,101737.23
2024-03-12T06:25:13.945Z,101738.41
2024-03-12T06:27:46.042Z,101734.33
2024-03-12T06:30:16.135Z,101730.69
2024-03-12T06:32:43.779Z,101733.35
2024-03-12T06:35:11.630Z,101728.64
2024-03-12T06:37:39.141Z,101727.81
2024-03-12T06:40:07.448Z,101730.61
2024-03-12T06:42:36.457Z,101735.06
2024-03-12T06:45:04.607Z,101731.84
2024-03-12T06:47:38.522Z,101741.11
2024-03-12T06:50:09.740Z,101743.10
2024-03-12T06:52:37.364Z,101739.11
2024-03-12T06:55:17.130Z,101732.94
2024-03-12T06:57:49.934Z,101734.04
2024-03-12T07:00:28.068Z,101741.06
2024-03-12T07:02:58.663Z,101731.30
2024-03-12T07:05:30.783Z,101733.27
2024-03-12T07:08:06.772Z,101730.85
2024-03-12T07:10:37.096Z,101725.61
2024-03-12T07:13:09.300Z,101727.30
2024-03-12T07:15:40.479Z,101721.55
2024-03-12T07:18:09.311Z,101718.38
2024-03-12T07:20:37.819Z,101715.62
2024-03-12T07:23:05.926Z,101697.51
2024-03-12T07:25:33.953Z,101693.05
2024-03-12T07:28:08.658Z,101686.76
2024-03-12T07:30:37.389Z,101685.59
2024-03-12T07:33:05.916Z,101688.69
2024-03-12T07:35:36.584Z,101687.36
2024-03-12T07:38:04.980Z,101683.73
2024-03-12T07:40:33.503Z,101672.18
2024-03-12T07:43:01.464Z,101668.37
2024-03-12T07:45:29.432Z,101659.52
2024-03-12T07:47:57.538Z,101656.67
2024-03-12T07:50:30.998Z,101660.85
2024-03-12T07:53:01.643Z,101663.23
2024-03-12T07:55:29.606Z,101665.26
2024-03-12T07:57:57.818Z,101661.39
2024-03-12T08:00:25.696Z,101656.73
2024-03-12T08:02:53.853Z,101662.36
2024-03-12T08:05:21.807Z,101665.73
2024-03-12T08:07:51.931Z,101663.61
2024-03-12T08:10:19.737Z,101650.79
2024-03-12T08:12:47.597Z,101644.67
2024-03-12T08:15:15.186Z,101640.58
2024-03-12T08:17:45.539Z,101633.75
2024-03-12T08:20:19.090Z,101629.02
2024-03-12T08:22:48.920Z,101624.98
2024-03-12T08:25:21.623Z,101619.32
2024-03-12T08:27:51.291Z,101615.56
2024-03-12T08:30:25.248Z,101613.48
2024-03-12T08:32:54.951Z,101605.98
2024-03-12T08:35:22.580Z,101598.83
2024-03-12T08:37:50.163Z,101596.42
2024-03-12T08:40:18.330Z,101593.11
2024-03-12T08:42:54.085Z,101600.77
2024-03-12T08:45:29.534Z,101597.44
2024-03-12T08:48:00.650Z,101601.90
2024-03-12T08:50:29.400Z,101598.58
2024-03-12T08:52:59.311Z,101595.88
2024-03-12T08:55:27.886Z,101596.98
2024-03-12T08:57:55.535Z,101599.75
2024-03-12T09:00:27.830Z,101596.91
2024-03-12T09:02:57.031Z,101599.36
2024-03-12T09:05:29.046Z,101594.45
2024-03-12T09:07:56.838Z,101585.98
2024-03-12T09:10:24.570Z,101584.81
2024-03-12T09:12:52.384Z,101593.46
2024-03-12T09:15:22.480Z,101594.33
2024-03-12T09:17:54.182Z,101585.33
2024-03-12T09:20:23.164Z,101579.11
2024-03-12T09:22:50.785Z,101584.33
2024-03-12T09:25:20.385Z,101597.53
2024-03-12T09:27:48.247Z,101591.20
2024-03-12T09:30:22.005Z,101587.80
2024-03-12T09:32:52.053Z,101585.58
2024-03-12T09:35:26.476Z,101585.90
2024-03-12T09:37:54.645Z,101591.75
2024-03-12T09:40:23.920Z,101586.03
2024-03-12T09:42:51.868Z,101580.46
2024-03-12T09:45:23.876Z,101574.88
2024-03-12T09:47:54.021Z,101569.97
2024-03-12T09:50:24.687Z,101576.36
2024-03-12T09:52:52.497Z,101578.81
2024-03-12T09:55:21.302Z,101582.66
2024-03-12T09:57:49.144Z,101579.90
2024-03-12T10:00:20.685Z,101573.85
2024-03-12T10:02:50.926Z,101561.33
2024-03-12T10:05:23.578Z,101559.60
2024-03-12T10:08:15.480Z,101560.48
2024-03-12T10:10:46.165Z,101567.20
2024-03-12T10:13:19.417Z,101575.14
2024-03-12T10:16:05.007Z,101585.69
2024-03-12T10:18:35.985Z,101588.58
2024-03-12T10:21:04.244Z,101598.16
2024-03-12T10:23:37.969Z,101600.02
2024-03-12T10:26:12.889Z,101596.67
2024-03-12T10:28:41.288Z,101588.34
2024-03-12T10:31:11.774Z,101589.35
2024-03-12T10:33:43.676Z,101594.38
2024-03-12T10:36:13.679Z,101592.73
2024-03-12T10:38:44.800Z,101592.98
2024-03-12T10:41:22.858Z,101587.95
2024-03-12T10:43:51.510Z,101582.54
2024-03-12T10:46:20.998Z,101580.30
2024-03-12T10:48:52.784Z,101576.73
2024-03-12T10:51:22.418Z,101570.64
2024-03-12T10:53:54.977Z,101566.75
2024-03-12T10:56:23.389Z,101563.20
2024-03-12T10:58:51.955Z,101557.36
2024-03-12T11:01:24.234Z,101553.64
2024-03-12T11:04:00.634Z,101548.75
2024-03-12T11:06:28.632Z,101544.74
2024-03-12T11:08:57.433Z,101545.23
2024-03-12T11:11:25.283Z,101544.67
2024-03-12T11:13:56.488Z,101548.46
2024-03-12T11:16:24.861Z,101545.09
2024-03-12T11:18:52.716Z,101538.19
2024-03-12T11:21:24.855Z,101539.52
2024-03-12T11:23:56.272Z,101541.23
2024-03-12T11:26:36.998Z,101546.27
2024-03-12T11:29:04.925Z,101546.61
2024-03-12T11:31:38.123Z,101545.21
2024-03-12T11:34:06.358Z,101526.05
2024-03-12T11:36:41.257Z,101503.86
2024-03-12T11:39:19.197Z,101486.91
2024-03-12T11:42:02.331Z,101494.75
2024-03-12T11:44:49.323Z,101510.81
2024-03-12T11:47:30.823Z,101530.41
2024-03-12T11:50:04.561Z,101557.79
2024-03-12T11:52:35.344Z,101578.48
2024-03-12T11:55:05.644Z,101593.02
2024-03-12T11:57:33.766Z,101598.77
2024-03-12T12:00:01.737Z,101597.42
2024-03-12T12:02:43.798Z,101596.70
2024-03-12T12:05:11.676Z,101601.21
2024-03-12T12:07:40.512Z,101601.46
2024-03-12T12:10:12.129Z,101599.29
2024-03-12T12:12:40.532Z,101591.75
2024-03-12T12:15:11.994Z,101582.85
2024-03-12T12:17:42.069Z,101582.70
2024-03-12T12:20:22.624Z,101579.96
2024-03-12T12:22:53.437Z,101577.74
2024-03-12T12:25:24.995Z,101571.77
2024-03-12T12:27:52.686Z,101567.48
2024-03-12T12:30:22.263Z,101564.02
2024-03-12T12:32:52.525Z,101561.90
2024-03-12T12:35:22.164Z,101560.64
2024-03-12T12:37:50.579Z,101553.27
2024-03-12T12:40:23.005Z,101546.91
2024-03-12T12:42:54.919Z,101542.11
2024-03-12T12:45:23.982Z,101539.18
2024-03-12T12:47:51.762Z,101539.86
2024-03-12T12:50:29.987Z,101544.06
2024-03-12T12:53:00.780Z,101543.94
2024-03-12T12:55:29.572Z,101537.13
2024-03-12T12:58:05.106Z,101533.86
2024-03-12T13:00:40.309Z,101536.84
2024-03-12T13:03:13.554Z,101541.66
2024-03-12T13:05:47.647Z,101545.25
2024-03-12T13:08:23.594Z,101547.21
2024-03-12T13:11:06.557Z,101544.13
2024-03-12T13:13:35.306Z,101536.52
2024-03-12T13:16:16.851Z,101533.36
2024-03-12T13:18:49.439Z,101533.60
2024-03-12T13:21:21.767Z,101533.48
2024-03-12T13:23:51.024Z,101525.39
2024-03-12T13:26:24.525Z,101520.20
2024-03-12T13:28:55.316Z,101525.05
2024-03-12T13:31:23.699Z,101517.27
2024-03-12T13:33:54.173Z,101516.74
2024-03-12T13:36:26.633Z,101519.08
2024-03-12T13:38:55.084Z,101517.52
2024-03-12T13:41:26.974Z,101513.73
2024-03-12T13:43:56.545Z,101505.81
2024-03-12T13:46:24.509Z,101507.34
2024-03-12T13:48:57.455Z,101495.60
2024-03-12T13:51:26.186Z,101492.83
2024-03-12T13:53:54.090Z,101491.80
2024-03-12T13:56:21.752Z,101477.02
2024-03-12T13:58:53.845Z,101469.59
2024-03-12T14:01:24.950Z,101464.25
2024-03-12T14:03:55.205Z,101457.00
2024-03-12T14:06:25.588Z,101458.91
2024-03-12T14:08:53.276Z,101460.11
2024-03-12T14:11:27.147Z,101451.32
2024-03-12T14:13:57.037Z,101444.60
2024-03-12T14:16:25.542Z,101425.98
2024-03-12T14:18:54.735Z,101411.16
2024-03-12T14:21:22.868Z,101402.20
2024-03-12T14:23:52.479Z,101391.01
2024-03-12T14:26:20.268Z,101388.59
2024-03-12T14:28:52.782Z,101386.88
2024-03-12T14:31:23.760Z,101376.52
2024-03-12T14:33:51.735Z,101370.64
2024-03-12T14:36:28.333Z,101368.71
2024-03-12T14:38:57.368Z,101351.48
2024-03-12T14:41:25.464Z,101338.38
2024-03-12T14:43:53.464Z,101337.69
2024-03-12T14:46:21.898Z,101334.41
2024-03-12T14:48:49.862Z,101325.80
2024-03-12T14:51:17.649Z,101327.00
2024-03-12T14:53:49.335Z,101320.98
2024-03-12T14:56:17.743Z,101312.71
2024-03-12T14:58:48.104Z,101313.22
2024-03-12T15:01:16.775Z,101309.43
2024-03-12T15:03:45.027Z,101313.23
2024-03-12T15:06:13.547Z,101316.30
2024-03-12T15:08:41.574Z,101309.05
2024-03-12T15:11:09.205Z,101300.59
2024-03-12T15:13:37.690Z,101301.62
2024-03-12T15:16:08.102Z,101304.88
2024-03-12T15:18:36.802Z,101302.29
2024-03-12T15:21:06.522Z,101300.56
2024-03-12T15:23:34.188Z,101301.42
2024-03-12T15:26:02.882Z,101293.68
2024-03-12T15:28:30.555Z,101298.48
2024-03-12T15:30:58.140Z,101305.54
2024-03-12T15:33:34.618Z,101311.54
2024-03-12T15:36:02.465Z,101305.17
2024-03-12T15:38:31.002Z,101303.95
2024-03-12T15:40:58.752Z,101306.05
2024-03-12T15:43:26.518Z,101305.88
2024-03-12T15:45:54.807Z,101306.90
2024-03-12T15:48:24.673Z,101312.19
2024-03-12T15:50:52.719Z,101306.38
2024-03-12T15:53:20.337Z,101302.23
2024-03-12T15:55:49.514Z,101299.81
2024-03-12T15:58:20.553Z,101310.95
2024-03-12T16:00:52.117Z,101309.56
2024-03-12T16:03:19.654Z,101316.69
2024-03-12T16:05:48.956Z,101319.64
2024-03-12T16:08:18.170Z,101325.41
2024-03-12T16:10:45.876Z,101318.20
2024-03-12T16:13:13.988Z,101313.04
2024-03-12T16:15:42.378Z,101315.96
2024-03-12T16:18:10.871Z,101314.27
2024-03-12T16:20:38.458Z,101320.77
2024-03-12T16:23:06.085Z,101321.26
2024-03-12T16:25:33.617Z,101325.73
2024-03-12T16:28:01.255Z,101326.73
2024-03-12T16:30:29.363Z,101329.34
2024-03-12T16:32:57.039Z,101332.92
2024-03-12T16:35:24.797Z,101330.34
2024-03-12T16:37:52.378Z,101325.02
2024-03-12T16:40:20.088Z,101326.93
2024-03-12T16:42:47.735Z,101331.20
2024-03-12T16:45:15.441Z,101332.31
2024-03-12T16:47:43.483Z,101331.09
2024-03-12T16:50:16.263Z,101333.30
2024-03-12T16:52:44.744Z,101329.55
2024-03-12T16:55:12.789Z,101336.66
2024-03-12T16:57:40.723Z,101334.04
2024-03-12T17:00:15.664Z,101338.14
2024-03-12T17:02:43.951Z,101336.23
2024-03-12T17:05:23.651Z,101331.59
2024-03-12T17:07:56.642Z,101331.58
2024-03-12T17:10:24.851Z,101332.75
2024-03-12T17:12:53.202Z,101329.73
2024-03-12T17:15:22.193Z,101330.13
2024-03-12T17:17:50.329Z,101334.44
2024-03-12T17:20:18.098Z,101330.47
2024-03-12T17:22:46.999Z,101331.80
2024-03-12T17:25:18.591Z,101332.77
2024-03-12T17:27:51.029Z,101335.85
2024-03-12T17:30:21.451Z,101332.06
2024-03-12T17:32:49.685Z,101331.81
2024-03-12T17:35:19.164Z,101328.55
2024-03-12T17:37:48.744Z,101321.66
2024-03-12T17:40:16.782Z,101314.39
2024-03-12T17:42:48.866Z,101307.13
2024-03-12T17:45:17.102Z,101313.46
2024-03-12T17:47:52.331Z,101314.90
2024-03-12T17:50:23.671Z,101312.84
2024-03-12T17:52:52.888Z,101318.63
2024-03-12T17:55:23.436Z,101316.61
2024-03-12T17:57:52.577Z,101314.62
2024-03-12T18:00:20.702Z,101310.48
2024-03-12T18:02:53.935Z,101307.89
2024-03-12T18:05:23.644Z,101305.30
2024-03-12T18:07:54.184Z,101297.70
2024-03-12T18:10:23.835Z,101299.80
2024-03-12T18:12:52.556Z,101299.48
2024-03-12T18:15:21.622Z,101304.13
2024-03-12T18:17:49.542Z,101304.58
2024-03-12T18:20:24.782Z,101301.26
2024-03-12T18:22:53.148Z,101308.58
2024-03-12T18:25:21.503Z,101300.31
2024-03-12T18:27:55.125Z,101303.37
2024-03-12T18:30:26.580Z,101304.80
2024-03-12T18:32:55.864Z,101294.48
2024-03-12T18:35:24.046Z,101295.98
2024-03-12T18:37:53.789Z,101290.77
2024-03-12T18:40:23.762Z,101282.60
2024-03-12T18:42:52.570Z,101284.64
2024-03-12T18:45:24.298Z,101289.02
2024-03-12T18:47:56.725Z,101298.95
2024-03-12T18:50:25.987Z,101296.46
2024-03-12T18:52:55.327Z,101290.38
2024-03-12T18:55:23.531Z,101288.75
2024-03-12T18:57:52.369Z,101289.41
2024-03-12T19:00:21.100Z,101288.61
2024-03-12T19:02:50.369Z,101290.86
2024-03-12T19:05:19.333Z,101287.77
2024-03-12T19:07:51.918Z,101293.63
2024-03-12T19:10:21.068Z,101296.89
2024-03-12T19:12:49.400Z,101296.16
2024-03-12T19:15:22.510Z,101299.03
2024-03-12T19:17:54.104Z,101304.95
2024-03-12T19:20:23.929Z,101297.83
2024-03-12T19:22:55.269Z,101297.55
2024-03-12T19:25:23.598Z,101295.89
2024-03-12T19:27:52.546Z,101285.96
2024-03-12T19:30:20.797Z,101283.48
2024-03-12T19:32:50.037Z,101273.89
2024-03-12T19:35:18.549Z,101274.20
2024-03-12T19:37:49.938Z,101259.59
2024-03-12T19:40:18.299Z,101256.52
2024-03-12T19:42:46.947Z,101250.41
2024-03-12T19:45:19.152Z,101249.67
2024-03-12T19:47:52.826Z,101245.67
2024-03-12T19:50:23.086Z,101239.34
2024-03-12T19:52:51.639Z,101236.27
2024-03-12T19:55:31.628Z,101234.48
2024-03-12T19:58:02.601Z,101230.51
2024-03-12T20:00:34.389Z,101223.41
2024-03-12T20:03:06.326Z,101221.27
2024-03-12T20:05:36.780Z,101219.31
2024-03-12T20:08:10.834Z,101221.80
2024-03-12T20:10:38.956Z,101228.46
2024-03-12T20:13:07.059Z,101231.98
2024-03-12T20:15:36.606Z,101227.64
2024-03-12T20:18:04.506Z,101225.86
2024-03-12T20:20:32.138Z,101220.09
2024-03-12T20:22:59.914Z,101216.22
2024-03-12T20:25:27.812Z,101207.94
2024-03-12T20:27:56.899Z,101214.40
2024-03-12T20:30:28.876Z,101218.89
2024-03-12T20:32:59.699Z,101217.84
2024-03-12T20:35:33.315Z,101224.74
2024-03-12T20:38:01.187Z,101225.38
2024-03-12T20:40:29.260Z,101222.56
2024-03-12T20:43:00.956Z,101228.09
2024-03-12T20:45:30.343Z,101235.33
2024-03-12T20:47:59.314Z,101236.85
2024-03-12T20:50:27.223Z,101239.13
2024-03-12T20:52:55.986Z,101241.70
2024-03-12T20:55:25.240Z,101243.33
2024-03-12T20:57:53.409Z,101239.36
2024-03-12T21:00:34.337Z,101236.31
2024-03-12T21:03:02.304Z,101220.15
2024-03-12T21:05:31.846Z,101216.88
2024-03-12T21:07:59.957Z,101218.77
2024-03-12T21:10:28.398Z,101217.92
2024-03-12T21:12:57.101Z,101214.15
2024-03-12T21:15:26.139Z,101212.96
2024-03-12T21:17:54.378Z,101212.79
2024-03-12T21:20:34.139Z,101209.96
2024-03-12T21:23:04.887Z,101209.13
2024-03-12T21:25:34.823Z,101214.42
2024-03-12T21:28:02.645Z,101213.13
2024-03-12T21:30:30.436Z,101209.30
2024-03-12T21:32:58.654Z,101204.21
2024-03-12T21:35:26.399Z,101200.88
2024-03-12T21:37:54.024Z,101203.64
2024-03-12T21:40:21.558Z,101194.73
2024-03-12T21:42:49.174Z,101193.14
2024-03-12T21:45:19.375Z,101190.55
2024-03-12T21:47:48.805Z,101187.05
2024-03-12T21:50:17.516Z,101185.59
2024-03-12T21:52:46.570Z,101189.46
2024-03-12T21:55:15.688Z,101196.92
2024-03-12T21:57:45.018Z,101193.59
2024-03-12T22:00:20.490Z,101193.71
2024-03-12T22:02:49.830Z,101196.99
2024-03-12T22:05:21.105Z,101198.56
2024-03-12T22:07:51.015Z,101198.30
2024-03-12T22:10:19.172Z,101194.38
2024-03-12T22:12:47.073Z,101191.48
2024-03-12T22:15:16.543Z,101188.02
2024-03-12T22:17:45.986Z,101185.30
2024-03-12T22:20:16.583Z,101185.16
2024-03-12T22:22:45.891Z,101180.25
2024-03-12T22:25:14.208Z,101179.83
2024-03-12T22:27:43.654Z,101176.36
2024-03-12T22:30:12.092Z,101168.86
2024-03-12T22:32:39.753Z,101164.11
2024-03-12T22:35:08.301Z,101162.77
2024-03-12T22:37:37.392Z,101159.84
2024-03-12T22:40:05.934Z,101159.48
2024-03-12T22:42:33.650Z,101158.09
2024-03-12T22:45:04.331Z,101157.94
2024-03-12T22:47:33.281Z,101160.14
2024-03-12T22:50:00.928Z,101158.91
2024-03-12T22:52:29.354Z,101163.05
2024-03-12T22:54:57.036Z,101162.17
2024-03-12T22:57:24.847Z,101162.73
2024-03-12T22:59:55.204Z,101161.59
2024-03-12T23:02:22.935Z,101164.40
2024-03-12T23:04:52.255Z,101162.23
2024-03-12T23:07:20.149Z,101163.73
2024-03-12T23:09:49.475Z,101165.30
2024-03-12T23:12:17.459Z,101163.11
2024-03-12T23:14:44.960Z,101173.11
2024-03-12T23:17:15.881Z,101174.16
2024-03-12T23:19:47.304Z,101167.30
2024-03-12T23:22:16.650Z,101162.96
2024-03-12T23:24:45.953Z,101156.29
2024-03-12T23:27:13.488Z,101156.33
2024-03-12T23:29:42.893Z,101152.23
2024-03-12T23:32:13.034Z,101150.38
2024-03-12T23:34:40.621Z,101147.16
2024-03-12T23:37:10.333Z,101143.55
2024-03-12T23:39:38.762Z,101140.49
2024-03-12T23:42:07.508Z,101135.55
2024-03-12T23:44:37.758Z,101129.00
2024-03-12T23:47:05.410Z,101124.73
2024-03-12T23:49:33.906Z,101122.13
2024-03-12T23:52:03.066Z,101116.28
2024-03-12T23:54:31.127Z,101113.52
2024-03-12T23:56:59.130Z,101107.50
2024-03-12T23:59:26.739Z,101106.64
